SWR5LD LSZH-LIRF
Flight info
| Callsign | SWR5LD |
|---|---|
| Flight time | N/A |
| Altitude | 37000 |
| Route | VEBIT T53 GERSA DCT SOSON DCT ODINA DCT EKPAL DCT TINKU DCT XIBIL |
| Aircraft | A319/M-SDE3FGHIRWY/LB1 |
Departure
| Time | 2026-05-04 14:29 |
|---|---|
| Airport | Zürich Airport (LSZH) |
Arrival
| Time | N/A |
|---|---|
| Airport | Rome–Fiumicino Leonardo da Vinci International Airport (LIRF) |
| Time | Latitude | Longitude | Altitude | Speed | Heading |
|---|---|---|---|---|---|
| 2026-05-04 13:57 | 47.45431 | 8.55691 | 1414 ft | 0 kts | 186° |
| 2026-05-04 13:58 | 47.45433 | 8.55636 | 1412 ft | 0 kts | 186° |
| 2026-05-04 14:18 | 47.45442 | 8.55637 | 1407 ft | 4 kts | 186° |
| 2026-05-04 14:19 | 47.45489 | 8.55647 | 1413 ft | 4 kts | 203° |
| 2026-05-04 14:19 | 47.45510 | 8.55668 | 1412 ft | 4 kts | 245° |
| 2026-05-04 14:19 | 47.45512 | 8.55701 | 1410 ft | 4 kts | 276° |
| 2026-05-04 14:19 | 47.45512 | 8.55709 | 1409 ft | 0 kts | 276° |
| 2026-05-04 14:21 | 47.45512 | 8.55708 | 1409 ft | 0 kts | 276° |
| 2026-05-04 14:21 | 47.45512 | 8.55703 | 1410 ft | 1 kts | 276° |
| 2026-05-04 14:21 | 47.45514 | 8.55677 | 1414 ft | 5 kts | 276° |
| 2026-05-04 14:22 | 47.45519 | 8.55611 | 1409 ft | 9 kts | 276° |
| 2026-05-04 14:22 | 47.45527 | 8.55496 | 1405 ft | 13 kts | 276° |
| 2026-05-04 14:22 | 47.45545 | 8.55393 | 1402 ft | 11 kts | 311° |
| 2026-05-04 14:22 | 47.45622 | 8.55341 | 1406 ft | 9 kts | 337° |
| 2026-05-04 14:23 | 47.45797 | 8.55240 | 1402 ft | 17 kts | 334° |
| 2026-05-04 14:23 | 47.45894 | 8.55171 | 1404 ft | 13 kts | 334° |
| 2026-05-04 14:23 | 47.45993 | 8.55101 | 1397 ft | 19 kts | 335° |
| 2026-05-04 14:24 | 47.46100 | 8.55029 | 1393 ft | 17 kts | 335° |
| 2026-05-04 14:24 | 47.46223 | 8.54941 | 1390 ft | 22 kts | 336° |
| 2026-05-04 14:24 | 47.46374 | 8.54842 | 1384 ft | 24 kts | 335° |
| 2026-05-04 14:24 | 47.46472 | 8.54775 | 1386 ft | 15 kts | 335° |
| 2026-05-04 14:25 | 47.46573 | 8.54703 | 1401 ft | 17 kts | 335° |
| 2026-05-04 14:25 | 47.46780 | 8.54524 | 1385 ft | 16 kts | 311° |
| 2026-05-04 14:25 | 47.46851 | 8.54391 | 1383 ft | 13 kts | 317° |
| 2026-05-04 14:26 | 47.46943 | 8.54320 | 1383 ft | 16 kts | 335° |
| 2026-05-04 14:26 | 47.47055 | 8.54244 | 1383 ft | 19 kts | 334° |
| 2026-05-04 14:26 | 47.47169 | 8.54165 | 1385 ft | 19 kts | 336° |
| 2026-05-04 14:26 | 47.47283 | 8.54087 | 1386 ft | 16 kts | 332° |
| 2026-05-04 14:27 | 47.47391 | 8.54012 | 1387 ft | 18 kts | 334° |
| 2026-05-04 14:27 | 47.47509 | 8.53929 | 1400 ft | 17 kts | 334° |
| 2026-05-04 14:27 | 47.47589 | 8.53863 | 1401 ft | 9 kts | 315° |
| 2026-05-04 14:27 | 47.47609 | 8.53778 | 1401 ft | 8 kts | 271° |
| 2026-05-04 14:28 | 47.47589 | 8.53690 | 1403 ft | 10 kts | 243° |
| 2026-05-04 14:28 | 47.47556 | 8.53626 | 1400 ft | 7 kts | 206° |
| 2026-05-04 14:28 | 47.47514 | 8.53634 | 1400 ft | 1 kts | 155° |
| 2026-05-04 14:28 | 47.47476 | 8.53661 | 1396 ft | 17 kts | 154° |
| 2026-05-04 14:29 | 47.46303 | 8.54471 | 1387 ft | 155 kts | 155° |
| 2026-05-04 14:29 | 47.44103 | 8.56025 | 2305 ft | 184 kts | 155° |
| 2026-05-04 14:30 | 47.43015 | 8.57066 | 2885 ft | 193 kts | 130° |
| 2026-05-04 14:30 | 47.42618 | 8.58976 | 3424 ft | 205 kts | 82° |
| 2026-05-04 14:30 | 47.44804 | 8.61389 | 4307 ft | 235 kts | 351° |
| 2026-05-04 14:31 | 47.46222 | 8.60241 | 5047 ft | 242 kts | 308° |
| 2026-05-04 14:31 | 47.46644 | 8.55560 | 6924 ft | 233 kts | 255° |
| 2026-05-04 14:32 | 47.45244 | 8.50975 | 8048 ft | 267 kts | 239° |
| 2026-05-04 14:32 | 47.44319 | 8.48522 | 8766 ft | 278 kts | 238° |
| 2026-05-04 14:32 | 47.43350 | 8.46022 | 9710 ft | 282 kts | 236° |
| 2026-05-04 14:32 | 47.42019 | 8.43880 | 10392 ft | 292 kts | 214° |
| 2026-05-04 14:33 | 47.40099 | 8.42680 | 10693 ft | 314 kts | 188° |
| 2026-05-04 14:33 | 47.37883 | 8.42923 | 11180 ft | 328 kts | 166° |
| 2026-05-04 14:33 | 47.35656 | 8.43817 | 11929 ft | 334 kts | 165° |
| 2026-05-04 14:33 | 47.33397 | 8.44725 | 12728 ft | 339 kts | 166° |
| 2026-05-04 14:34 | 47.31111 | 8.45636 | 13506 ft | 343 kts | 166° |
| 2026-05-04 14:34 | 47.28790 | 8.46552 | 14225 ft | 347 kts | 166° |
| 2026-05-04 14:34 | 47.27206 | 8.47177 | 14703 ft | 349 kts | 166° |
| 2026-05-04 14:34 | 47.24851 | 8.48103 | 15427 ft | 352 kts | 167° |
| 2026-05-04 14:35 | 47.22474 | 8.49035 | 16133 ft | 355 kts | 167° |
| 2026-05-04 14:35 | 47.20075 | 8.49976 | 16836 ft | 358 kts | 167° |
| 2026-05-04 14:35 | 47.17626 | 8.50937 | 17534 ft | 361 kts | 167° |
| 2026-05-04 14:35 | 47.15149 | 8.51593 | 18205 ft | 363 kts | 176° |
| 2026-05-04 14:36 | 47.12624 | 8.51950 | 18798 ft | 366 kts | 176° |
| 2026-05-04 14:36 | 47.10078 | 8.52316 | 19410 ft | 369 kts | 176° |
| 2026-05-04 14:36 | 47.07519 | 8.52688 | 20025 ft | 372 kts | 176° |
| 2026-05-04 14:36 | 47.04931 | 8.53064 | 20608 ft | 375 kts | 177° |
| 2026-05-04 14:37 | 47.02319 | 8.53443 | 21168 ft | 379 kts | 177° |
| 2026-05-04 14:37 | 46.99683 | 8.53821 | 21772 ft | 382 kts | 177° |
| 2026-05-04 14:37 | 46.97028 | 8.54202 | 22375 ft | 385 kts | 176° |
| 2026-05-04 14:37 | 46.94356 | 8.54584 | 22961 ft | 387 kts | 176° |
| 2026-05-04 14:38 | 46.91659 | 8.54973 | 23482 ft | 391 kts | 176° |
| 2026-05-04 14:38 | 46.88948 | 8.55366 | 23902 ft | 394 kts | 176° |
| 2026-05-04 14:38 | 46.86213 | 8.55763 | 24363 ft | 395 kts | 176° |
| 2026-05-04 14:38 | 46.83470 | 8.56159 | 24813 ft | 397 kts | 176° |
| 2026-05-04 14:39 | 46.80716 | 8.56555 | 25284 ft | 399 kts | 176° |
| 2026-05-04 14:39 | 46.77943 | 8.56953 | 25756 ft | 401 kts | 177° |
| 2026-05-04 14:39 | 46.75162 | 8.57350 | 26238 ft | 403 kts | 176° |
| 2026-05-04 14:40 | 46.69545 | 8.58146 | 27149 ft | 408 kts | 176° |
| 2026-05-04 14:40 | 46.66712 | 8.58553 | 27546 ft | 410 kts | 176° |
| 2026-05-04 14:40 | 46.63860 | 8.58962 | 27984 ft | 413 kts | 176° |
| 2026-05-04 14:40 | 46.60957 | 8.59376 | 28409 ft | 415 kts | 176° |
| 2026-05-04 14:41 | 46.58082 | 8.59783 | 28844 ft | 417 kts | 176° |
| 2026-05-04 14:41 | 46.55188 | 8.60194 | 29243 ft | 419 kts | 176° |
| 2026-05-04 14:41 | 46.49351 | 8.61020 | 30003 ft | 424 kts | 176° |
| 2026-05-04 14:42 | 46.43455 | 8.61852 | 30606 ft | 428 kts | 176° |
| 2026-05-04 14:42 | 46.40478 | 8.62270 | 30903 ft | 431 kts | 176° |
| 2026-05-04 14:42 | 46.37487 | 8.62690 | 31183 ft | 432 kts | 176° |
| 2026-05-04 14:43 | 46.34487 | 8.63109 | 31490 ft | 434 kts | 176° |
| 2026-05-04 14:43 | 46.31488 | 8.63531 | 31878 ft | 433 kts | 177° |
| 2026-05-04 14:43 | 46.28488 | 8.63956 | 32281 ft | 433 kts | 177° |
| 2026-05-04 14:43 | 46.25494 | 8.64382 | 32690 ft | 432 kts | 177° |
| 2026-05-04 14:44 | 46.22504 | 8.64807 | 33033 ft | 432 kts | 177° |
| 2026-05-04 14:44 | 46.19510 | 8.65227 | 33423 ft | 432 kts | 178° |
| 2026-05-04 14:44 | 46.16517 | 8.65643 | 33784 ft | 432 kts | 178° |
| 2026-05-04 14:44 | 46.13525 | 8.66133 | 34156 ft | 434 kts | 173° |
| 2026-05-04 14:45 | 46.10597 | 8.67239 | 34509 ft | 437 kts | 163° |
| 2026-05-04 14:45 | 46.07816 | 8.69067 | 34826 ft | 442 kts | 154° |
| 2026-05-04 14:45 | 46.05218 | 8.71476 | 35112 ft | 445 kts | 150° |
| 2026-05-04 14:45 | 46.02643 | 8.73944 | 35393 ft | 446 kts | 150° |
| 2026-05-04 14:46 | 46.00051 | 8.76420 | 35617 ft | 447 kts | 150° |
| 2026-05-04 14:46 | 45.97457 | 8.78889 | 35883 ft | 448 kts | 150° |
| 2026-05-04 14:46 | 45.94852 | 8.81361 | 36169 ft | 449 kts | 150° |
| 2026-05-04 14:46 | 45.92245 | 8.83832 | 36455 ft | 449 kts | 150° |
| 2026-05-04 14:47 | 45.89638 | 8.86301 | 36737 ft | 449 kts | 150° |
| 2026-05-04 14:47 | 45.87032 | 8.88766 | 36987 ft | 449 kts | 150° |
| 2026-05-04 14:47 | 45.81788 | 8.93728 | 37086 ft | 448 kts | 150° |
| 2026-05-04 14:48 | 45.76569 | 8.98670 | 37082 ft | 450 kts | 150° |
| 2026-05-04 14:48 | 45.71342 | 9.03596 | 37084 ft | 450 kts | 151° |
| 2026-05-04 14:49 | 45.66104 | 9.08514 | 37084 ft | 450 kts | 150° |
| 2026-05-04 14:49 | 45.60866 | 9.13424 | 37082 ft | 450 kts | 150° |
| 2026-05-04 14:50 | 45.55632 | 9.18323 | 37066 ft | 450 kts | 151° |
| 2026-05-04 14:50 | 45.50387 | 9.23216 | 37066 ft | 451 kts | 151° |
| 2026-05-04 14:51 | 45.45143 | 9.28104 | 37075 ft | 451 kts | 151° |
| 2026-05-04 14:51 | 45.39887 | 9.32996 | 37075 ft | 451 kts | 151° |
| 2026-05-04 14:52 | 45.34622 | 9.37876 | 37109 ft | 452 kts | 151° |
| 2026-05-04 14:52 | 45.29310 | 9.42780 | 37104 ft | 453 kts | 151° |
| 2026-05-04 14:53 | 45.24025 | 9.47647 | 37091 ft | 453 kts | 151° |
| 2026-05-04 14:53 | 45.18745 | 9.52509 | 37074 ft | 453 kts | 151° |
| 2026-05-04 14:54 | 45.13457 | 9.57373 | 37066 ft | 453 kts | 152° |
| 2026-05-04 14:54 | 45.08165 | 9.62232 | 37056 ft | 453 kts | 152° |
| 2026-05-04 14:55 | 45.02860 | 9.67076 | 37058 ft | 454 kts | 152° |
| 2026-05-04 14:55 | 44.97544 | 9.71919 | 37091 ft | 455 kts | 152° |
| 2026-05-04 14:56 | 44.92224 | 9.76770 | 37084 ft | 456 kts | 152° |
| 2026-05-04 14:56 | 44.86895 | 9.81612 | 37090 ft | 456 kts | 152° |
| 2026-05-04 14:57 | 44.81554 | 9.86459 | 37089 ft | 457 kts | 152° |
| 2026-05-04 14:57 | 44.76205 | 9.91300 | 37084 ft | 457 kts | 152° |
| 2026-05-04 14:58 | 44.70850 | 9.96130 | 37056 ft | 458 kts | 152° |
| 2026-05-04 14:58 | 44.65451 | 10.00982 | 37063 ft | 458 kts | 152° |
| 2026-05-04 14:59 | 44.60067 | 10.05812 | 37065 ft | 459 kts | 152° |